Terminal Aerodrome Forecast
Issued by NWS

Current Version | Previous Version | Text Only | Print | Product List | Glossary Off
Versions: 1 2 3 4 5 6 7 8 9 10 11 12 13 14 15 16 17 18 19 20 21 22 23 24 25

000
FTUS41 KRLX 301100
TAFCKB
TAF
KCKB 301132Z 3012/0112 00000KT 6SM BR SCT001
     FM301300 VRB03KT P6SM SCT045
     FM301400 25006KT P6SM SCT045
     FM301800 26007KT P6SM BKN045
     FM302100 26006KT P6SM VCSH BKN040
     FM010200 VRB03KT 6SM HZ BKN040
     FM010800 00000KT 5SM BR BKN014=

USA.gov is the U.S. government's official web portal to all federal, state and local government web resources and services.